Time;durP1;ratioP1;P1;durP2;ratioP2;P2;SDS_P1;SDS_P2;PMS_P1;PMS_P2;Temp;Humidity;BMP_temperature;BMP_pressure;BME280_temperature;BME280_humidity;BME280_pressure;Samples;Min_cycle;Max_cycle;Signal;HPM_P1;HPM_P2
2023/08/02 00:00:01;;;;;;;18.60;11.48;;;;;;;12.57;100.00;96011.09;5003914;28;20037;-70
2023/08/02 00:02:27;;;;;;;20.00;12.43;;;;;;;12.61;100.00;96000.88;4999941;28;20033;-71
2023/08/02 00:04:53;;;;;;;18.25;11.02;;;;;;;12.53;100.00;95988.31;5003693;28;20553;-71
2023/08/02 00:07:18;;;;;;;18.90;10.95;;;;;;;12.53;100.00;95997.38;4999575;28;20575;-71
2023/08/02 00:09:44;;;;;;;18.63;11.48;;;;;;;12.48;100.00;95996.97;5003202;28;20130;-71
2023/08/02 00:12:09;;;;;;;17.98;11.35;;;;;;;12.29;100.00;95989.94;4999053;28;20078;-69
2023/08/02 00:14:34;;;;;;;23.00;13.05;;;;;;;12.12;100.00;95992.34;5004477;28;20072;-69
2023/08/02 00:17:00;;;;;;;19.52;12.85;;;;;;;12.01;100.00;95994.28;5002745;28;20041;-71
2023/08/02 00:19:25;;;;;;;18.15;11.93;;;;;;;11.98;100.00;95995.09;5000095;28;20479;-71
2023/08/02 00:21:50;;;;;;;28.17;13.05;;;;;;;11.99;100.00;95996.63;4991901;28;20104;-71
2023/08/02 00:24:16;;;;;;;25.33;13.45;;;;;;;11.93;100.00;95993.50;4993920;28;20040;-70
2023/08/02 00:26:41;;;;;;;19.05;12.25;;;;;;;11.99;100.00;95991.97;5003696;28;20683;-70
2023/08/02 00:29:07;;;;;;;16.05;11.95;;;;;;;12.17;100.00;95980.97;4998791;28;20069;-69
2023/08/02 00:31:32;;;;;;;16.70;11.45;;;;;;;12.43;100.00;95979.72;5004171;28;20042;-70
2023/08/02 00:33:58;;;;;;;18.48;10.98;;;;;;;12.46;100.00;95974.59;5002498;28;20136;-70
2023/08/02 00:36:23;;;;;;;18.95;11.02;;;;;;;12.44;100.00;95975.00;5002141;28;20298;-70
2023/08/02 00:38:49;;;;;;;17.45;11.60;;;;;;;12.56;100.00;95980.06;5012613;28;20034;-69
2023/08/02 00:41:14;;;;;;;25.60;10.68;;;;;;;12.50;100.00;95967.94;5010188;28;20050;-70
2023/08/02 00:43:45;;;;;;;21.00;11.43;;;;;;;12.31;100.00;95960.13;5010222;28;20048;-70
2023/08/02 00:46:14;;;;;;;21.17;12.30;;;;;;;11.90;100.00;95960.56;4998870;28;20038;-70
2023/08/02 00:48:40;;;;;;;20.60;12.82;;;;;;;11.78;100.00;95950.78;5002109;28;20489;-70
2023/08/02 00:51:15;;;;;;;20.70;12.48;;;;;;;11.72;100.00;95947.66;4999431;28;20034;-69
2023/08/02 00:53:44;;;;;;;15.35;11.82;;;;;;;11.74;100.00;95941.75;5003060;28;20049;-71
2023/08/02 00:56:11;;;;;;;19.02;12.90;;;;;;;11.74;100.00;95931.56;4996597;28;20045;-71
2023/08/02 00:58:36;;;;;;;20.40;12.80;;;;;;;11.70;100.00;95928.03;5003203;28;20048;-71
2023/08/02 01:01:07;;;;;;;19.30;13.05;;;;;;;11.70;100.00;95930.00;5000765;28;20046;-69
2023/08/02 01:03:39;;;;;;;20.25;13.18;;;;;;;11.70;100.00;95924.50;5003264;28;20052;-69
2023/08/02 01:06:15;;;;;;;20.55;12.68;;;;;;;11.65;100.00;95912.75;4998636;28;20038;-69
2023/08/02 01:08:44;;;;;;;21.08;13.55;;;;;;;11.59;100.00;95908.84;5013463;28;20175;-70
2023/08/02 01:11:23;;;;;;;23.67;12.63;;;;;;;11.51;100.00;95903.75;4999018;28;20037;-71
2023/08/02 01:13:53;;;;;;;20.52;13.25;;;;;;;11.34;100.00;95886.91;5020429;28;20156;-70
2023/08/02 01:16:19;;;;;;;20.38;13.25;;;;;;;11.32;100.00;95896.69;5010639;28;20038;-71
2023/08/02 01:18:45;;;;;;;25.30;15.32;;;;;;;11.28;100.00;95899.44;5002483;28;20506;-71
2023/08/02 01:21:10;;;;;;;22.48;13.23;;;;;;;11.32;100.00;95894.72;4997796;28;20034;-70
2023/08/02 01:23:36;;;;;;;18.00;13.52;;;;;;;11.60;100.00;95893.97;5003206;28;20076;-70
2023/08/02 01:26:04;;;;;;;20.70;11.80;;;;;;;11.81;100.00;95895.09;5002071;28;20042;-72
2023/08/02 01:28:34;;;;;;;21.45;11.77;;;;;;;11.90;100.00;95889.22;5000825;28;20707;-70
2023/08/02 01:31:00;;;;;;;17.95;11.77;;;;;;;11.89;100.00;95888.44;5002294;28;20092;-71
2023/08/02 01:33:27;;;;;;;19.98;12.02;;;;;;;11.99;100.00;95884.13;4996603;28;20038;-71
2023/08/02 01:35:52;;;;;;;16.35;11.35;;;;;;;12.10;100.00;95887.66;5003112;28;20483;-72
2023/08/02 01:38:18;;;;;;;17.65;11.20;;;;;;;12.05;100.00;95888.03;4997946;28;20045;-70
2023/08/02 01:40:43;;;;;;;16.30;10.88;;;;;;;12.14;100.00;95893.91;5001286;28;20053;-69
2023/08/02 01:43:09;;;;;;;16.58;10.95;;;;;;;12.16;100.00;95890.75;4997140;28;20137;-69
2023/08/02 01:45:34;;;;;;;16.67;10.82;;;;;;;12.09;100.00;95888.81;5000947;28;20041;-71
2023/08/02 01:48:01;;;;;;;16.60;10.57;;;;;;;12.06;100.00;95875.88;5002080;28;20395;-72
2023/08/02 01:50:26;;;;;;;16.90;11.88;;;;;;;11.92;100.00;95865.72;4997555;28;20050;-71
2023/08/02 01:52:52;;;;;;;16.40;11.20;;;;;;;11.84;100.00;95867.66;5001716;28;20038;-71
2023/08/02 01:55:18;;;;;;;15.30;10.13;;;;;;;11.87;100.00;95868.84;4996066;28;20050;-72
2023/08/02 01:57:44;;;;;;;18.90;10.25;;;;;;;11.93;100.00;95866.50;5002309;28;20407;-71
2023/08/02 02:00:10;;;;;;;19.77;10.68;;;;;;;11.98;100.00;95874.34;4997702;28;20033;-72
2023/08/02 02:02:35;;;;;;;15.35;10.15;;;;;;;12.02;100.00;95870.38;4999560;28;20697;-71
2023/08/02 02:05:01;;;;;;;14.73;9.48;;;;;;;12.04;100.00;95853.53;5001599;28;20137;-70
2023/08/02 02:07:26;;;;;;;15.00;10.85;;;;;;;12.08;100.00;95843.31;4999651;28;20045;-71
2023/08/02 02:09:52;;;;;;;16.88;10.38;;;;;;;11.85;100.00;95833.56;5006249;28;20041;-70
2023/08/02 02:12:17;;;;;;;15.30;10.43;;;;;;;11.65;100.00;95840.69;4997776;28;20058;-71
2023/08/02 02:14:42;;;;;;;23.30;11.60;;;;;;;11.61;100.00;95837.94;5002224;28;20049;-70
2023/08/02 02:17:08;;;;;;;16.67;10.57;;;;;;;11.66;100.00;95834.78;4997565;28;20132;-71
2023/08/02 02:19:33;;;;;;;14.60;10.75;;;;;;;11.71;100.00;95835.56;5002642;28;20069;-68
2023/08/02 02:21:59;;;;;;;16.55;11.27;;;;;;;11.83;100.00;95824.19;5001393;28;20479;-69
2023/08/02 02:24:24;;;;;;;14.18;10.05;;;;;;;11.85;100.00;95821.81;4997249;28;20155;-69
2023/08/02 02:26:49;;;;;;;16.83;10.20;;;;;;;11.90;100.00;95817.88;5000572;28;20048;-70
2023/08/02 02:29:15;;;;;;;14.30;9.68;;;;;;;11.90;100.00;95815.13;4996628;28;20141;-70
2023/08/02 02:31:40;;;;;;;15.98;10.52;;;;;;;11.86;100.00;95806.91;5002207;28;20046;-69
2023/08/02 02:34:05;;;;;;;19.23;10.65;;;;;;;11.72;100.00;95801.47;4999615;28;20079;-69
2023/08/02 02:36:31;;;;;;;15.50;11.10;;;;;;;11.41;100.00;95798.38;5001515;28;20053;-70
2023/08/02 02:38:56;;;;;;;18.15;11.15;;;;;;;11.29;100.00;95803.09;5001443;28;20129;-70
2023/08/02 02:41:21;;;;;;;17.42;11.25;;;;;;;11.48;100.00;95803.84;4995731;28;20146;-70
2023/08/02 02:43:47;;;;;;;22.42;11.45;;;;;;;11.64;100.00;95801.47;5000818;28;20045;-70
2023/08/02 02:46:12;;;;;;;13.35;9.80;;;;;;;11.83;100.00;95799.50;4994315;28;20753;-69
2023/08/02 02:48:37;;;;;;;17.50;11.00;;;;;;;11.86;100.00;95796.69;5001454;28;20050;-70
2023/08/02 02:51:03;;;;;;;15.82;10.38;;;;;;;11.90;100.00;95793.97;4999564;28;20046;-69
2023/08/02 02:53:28;;;;;;;22.60;11.18;;;;;;;11.83;100.00;95792.03;5000250;28;20038;-69
2023/08/02 02:55:56;;;;;;;18.88;10.50;;;;;;;11.78;100.00;95794.41;5001921;28;20045;-70
2023/08/02 02:58:21;;;;;;;25.92;11.00;;;;;;;11.92;100.00;95774.38;4999662;28;20060;-71
2023/08/02 03:00:47;;;;;;;14.10;10.10;;;;;;;12.04;100.00;95785.69;5004665;28;20042;-70
2023/08/02 03:03:12;;;;;;;18.83;11.10;;;;;;;12.16;100.00;95789.97;5009089;28;20037;-70
2023/08/02 03:05:39;;;;;;;16.02;9.55;;;;;;;12.29;100.00;95776.56;5026979;28;20045;-70
2023/08/02 03:08:04;;;;;;;19.23;9.85;;;;;;;12.22;100.00;95771.88;5022329;28;20380;-69
2023/08/02 03:10:29;;;;;;;14.38;10.07;;;;;;;12.15;100.00;95758.19;5008341;28;20042;-70
2023/08/02 03:12:55;;;;;;;19.15;11.00;;;;;;;12.01;100.00;95767.31;5004600;28;20038;-70
2023/08/02 03:15:20;;;;;;;12.95;9.70;;;;;;;12.05;100.00;95759.06;5000575;28;20041;-70
2023/08/02 03:17:46;;;;;;;16.25;11.13;;;;;;;12.08;100.00;95760.19;5006274;28;20049;-71
2023/08/02 03:20:11;;;;;;;13.77;9.70;;;;;;;11.94;100.00;95750.88;5021824;28;20037;-71
2023/08/02 03:22:38;;;;;;;16.35;10.32;;;;;;;11.92;100.00;95755.97;5019707;28;20041;-71
2023/08/02 03:25:04;;;;;;;14.90;10.15;;;;;;;12.03;100.00;95747.69;5013346;28;20054;-69
2023/08/02 03:27:29;;;;;;;14.57;10.25;;;;;;;12.09;100.00;95750.81;5007310;28;20041;-71
2023/08/02 03:29:56;;;;;;;14.75;9.35;;;;;;;12.23;100.00;95740.53;5025418;28;20046;-71
2023/08/02 03:32:21;;;;;;;14.80;9.80;;;;;;;12.24;100.00;95738.53;5006521;28;20048;-72
2023/08/02 03:34:47;;;;;;;15.65;10.05;;;;;;;11.81;100.00;95730.50;5007486;28;20042;-72
2023/08/02 03:37:12;;;;;;;17.70;9.98;;;;;;;11.82;100.00;95741.06;5005485;28;20049;-72
2023/08/02 03:39:37;;;;;;;13.60;9.23;;;;;;;11.89;100.00;95734.78;5014603;28;20057;-69
2023/08/02 03:42:03;;;;;;;15.95;10.05;;;;;;;11.97;100.00;95727.31;5009923;28;20161;-71
2023/08/02 03:44:28;;;;;;;14.00;9.65;;;;;;;11.91;100.00;95726.19;5007540;28;20037;-71
2023/08/02 03:46:54;;;;;;;14.88;9.27;;;;;;;11.85;100.00;95717.56;5003664;28;20403;-71
2023/08/02 03:49:20;;;;;;;19.27;10.07;;;;;;;11.77;100.00;95714.03;4999296;28;20526;-71
2023/08/02 03:51:46;;;;;;;17.55;10.07;;;;;;;11.70;100.00;95713.31;5004127;28;20041;-71
2023/08/02 03:54:12;;;;;;;20.77;11.07;;;;;;;11.62;100.00;95702.34;4997198;28;20127;-69
2023/08/02 03:56:37;;;;;;;19.58;11.15;;;;;;;11.63;100.00;95700.38;5004780;28;20038;-71
2023/08/02 03:59:03;;;;;;;19.52;10.50;;;;;;;11.65;100.00;95701.56;5001858;28;20666;-70
2023/08/02 04:01:28;;;;;;;20.83;10.52;;;;;;;11.73;100.00;95699.56;5001421;28;20046;-70
2023/08/02 04:03:54;;;;;;;16.67;11.32;;;;;;;11.82;100.00;95690.91;5001658;28;20129;-70
2023/08/02 04:06:19;;;;;;;18.70;10.32;;;;;;;11.88;100.00;95692.06;4999016;28;20046;-69
2023/08/02 04:08:44;;;;;;;15.55;10.52;;;;;;;11.96;100.00;95698.34;5003861;28;20490;-70
2023/08/02 04:11:10;;;;;;;20.08;11.10;;;;;;;12.04;100.00;95686.13;4999983;28;20037;-70
2023/08/02 04:13:35;;;;;;;20.23;11.07;;;;;;;12.07;100.00;95690.03;5003623;28;20041;-70
2023/08/02 04:16:02;;;;;;;18.00;10.52;;;;;;;12.07;100.00;95690.03;5004485;28;20048;-70
2023/08/02 04:18:27;;;;;;;15.10;9.85;;;;;;;12.11;100.00;95685.31;5015213;28;20049;-70
2023/08/02 04:20:53;;;;;;;20.60;10.98;;;;;;;12.21;100.00;95690.72;5001772;28;20050;-71
2023/08/02 04:23:18;;;;;;;15.60;9.98;;;;;;;12.39;100.00;95689.84;5000228;28;20038;-72
2023/08/02 04:25:43;;;;;;;17.83;10.63;;;;;;;12.48;100.00;95684.66;5004018;28;20049;-75
2023/08/02 04:28:09;;;;;;;15.75;9.30;;;;;;;12.56;100.00;95691.66;5001487;28;20040;-72
2023/08/02 04:30:34;;;;;;;18.55;10.02;;;;;;;12.72;100.00;95680.16;5004367;28;20048;-71
2023/08/02 04:32:59;;;;;;;15.82;9.05;;;;;;;12.89;100.00;95678.47;5003899;28;20444;-70
2023/08/02 04:35:25;;;;;;;15.88;9.15;;;;;;;13.05;100.00;95679.88;4999711;28;20061;-70
2023/08/02 04:37:51;;;;;;;14.27;9.27;;;;;;;13.15;100.00;95679.75;5003115;28;20136;-71
2023/08/02 04:40:17;;;;;;;13.05;8.45;;;;;;;13.28;100.00;95677.25;5001057;28;20038;-72
2023/08/02 04:42:42;;;;;;;14.38;9.30;;;;;;;13.39;100.00;95668.94;5006235;28;20076;-71
2023/08/02 04:45:08;;;;;;;11.98;8.43;;;;;;;13.38;100.00;95672.88;5000704;28;20042;-70
2023/08/02 04:47:34;;;;;;;12.25;7.88;;;;;;;13.49;100.00;95676.28;5004940;28;20052;-71
2023/08/02 04:50:00;;;;;;;14.18;8.20;;;;;;;13.64;100.00;95673.38;5006931;28;20491;-69
2023/08/02 04:52:26;;;;;;;12.45;8.27;;;;;;;13.85;100.00;95678.59;5002220;28;20076;-74
2023/08/02 04:54:51;;;;;;;12.32;7.93;;;;;;;13.99;100.00;95682.34;5006557;28;20041;-71
2023/08/02 04:57:16;;;;;;;13.70;8.18;;;;;;;14.11;100.00;95676.28;4999245;28;20041;-70
2023/08/02 04:59:42;;;;;;;13.07;8.00;;;;;;;14.15;100.00;95677.81;5003263;28;20038;-70
2023/08/02 05:02:07;;;;;;;10.63;7.80;;;;;;;14.19;100.00;95666.75;4998398;28;20038;-70
2023/08/02 05:04:32;;;;;;;12.18;8.23;;;;;;;14.16;100.00;95662.06;5003856;28;20353;-70
2023/08/02 05:06:58;;;;;;;13.93;7.68;;;;;;;14.13;100.00;95660.94;5004579;28;20447;-69
2023/08/02 05:09:23;;;;;;;12.07;8.02;;;;;;;14.25;100.00;95661.56;4998973;28;20053;-70
2023/08/02 05:11:49;;;;;;;14.45;8.70;;;;;;;13.96;100.00;95651.72;5006861;28;20042;-71
2023/08/02 05:14:14;;;;;;;18.20;10.00;;;;;;;13.84;100.00;95648.75;5001353;28;20034;-70
2023/08/02 05:16:39;;;;;;;14.80;9.27;;;;;;;13.85;100.00;95655.81;5001623;28;20046;-70
2023/08/02 05:19:05;;;;;;;14.55;9.18;;;;;;;13.85;100.00;95648.34;4999794;28;20065;-70
2023/08/02 05:21:30;;;;;;;14.52;9.52;;;;;;;13.86;100.00;95643.59;5001350;28;20042;-70
2023/08/02 05:23:55;;;;;;;14.98;9.43;;;;;;;13.83;100.00;95638.91;5003612;28;20415;-69
2023/08/02 05:26:22;;;;;;;16.50;9.70;;;;;;;13.80;100.00;95642.50;5000637;28;20545;-70
2023/08/02 05:28:47;;;;;;;17.20;9.80;;;;;;;13.69;100.00;95635.16;5012175;28;20040;-69
2023/08/02 05:31:14;;;;;;;15.70;10.65;;;;;;;13.68;100.00;95636.34;5030271;28;20065;-69
2023/08/02 05:33:40;;;;;;;19.52;11.05;;;;;;;13.65;100.00;95639.16;5038283;28;20046;-70
2023/08/02 05:36:11;;;;;;;14.10;9.68;;;;;;;13.71;100.00;95643.78;5027364;28;20034;-69
2023/08/02 05:38:38;;;;;;;15.63;10.18;;;;;;;13.98;100.00;95653.28;5022259;28;20041;-69
2023/08/02 05:41:03;;;;;;;13.60;9.50;;;;;;;14.09;100.00;95643.66;5018230;28;20042;-69
2023/08/02 05:43:29;;;;;;;13.00;8.68;;;;;;;14.10;100.00;95647.22;5022884;28;20068;-70
2023/08/02 05:45:56;;;;;;;15.43;8.70;;;;;;;14.04;100.00;95644.13;5024222;28;20150;-70
2023/08/02 05:48:21;;;;;;;12.10;7.80;;;;;;;14.17;100.00;95646.31;5018494;28;20049;-71
2023/08/02 05:50:47;;;;;;;12.02;8.20;;;;;;;14.17;100.00;95646.31;5021393;28;20042;-70
2023/08/02 05:53:12;;;;;;;13.13;7.47;;;;;;;14.31;100.00;95648.84;5017297;28;20041;-71
2023/08/02 05:55:37;;;;;;;14.45;7.13;;;;;;;14.38;100.00;95654.25;5022175;28;20041;-71
2023/08/02 05:58:03;;;;;;;13.73;8.25;;;;;;;14.38;100.00;95657.00;5018471;28;20049;-71
2023/08/02 06:00:29;;;;;;;12.80;7.80;;;;;;;14.47;100.00;95660.00;5021149;28;20088;-70
2023/08/02 06:02:54;;;;;;;10.90;6.82;;;;;;;14.60;100.00;95667.72;5002716;28;20036;-71
2023/08/02 06:05:20;;;;;;;13.55;7.35;;;;;;;14.67;100.00;95673.91;4996338;28;20040;-69
2023/08/02 06:07:45;;;;;;;11.07;7.55;;;;;;;14.76;100.00;95684.38;5003216;28;20048;-71
2023/08/02 06:10:10;;;;;;;10.45;6.45;;;;;;;14.89;100.00;95699.16;4997971;28;20050;-71
2023/08/02 06:12:36;;;;;;;12.80;6.70;;;;;;;15.02;100.00;95704.06;5002973;28;20092;-71
2023/08/02 06:15:02;;;;;;;8.70;6.05;;;;;;;15.17;100.00;95708.13;5006093;28;20069;-73
2023/08/02 06:17:27;;;;;;;10.18;6.95;;;;;;;15.34;100.00;95709.03;5000573;28;20042;-72
2023/08/02 06:19:53;;;;;;;10.93;6.75;;;;;;;15.17;100.00;95688.81;5003598;28;20125;-71
2023/08/02 06:22:19;;;;;;;13.23;7.10;;;;;;;15.16;100.00;95684.53;4997219;28;20119;-72
2023/08/02 06:24:44;;;;;;;9.40;6.18;;;;;;;14.52;100.00;95661.53;5002578;28;20128;-71
2023/08/02 06:27:10;;;;;;;10.07;6.93;;;;;;;14.29;100.00;95659.50;4997230;28;20445;-71
2023/08/02 06:29:35;;;;;;;14.10;7.05;;;;;;;14.26;100.00;95676.88;5000099;28;20104;-70
2023/08/02 06:32:01;;;;;;;13.00;7.10;;;;;;;14.20;100.00;95675.78;5017111;28;20449;-71
2023/08/02 06:34:27;;;;;;;11.38;6.95;;;;;;;14.20;100.00;95673.81;5016733;28;20099;-70
2023/08/02 06:36:52;;;;;;;11.23;7.43;;;;;;;14.15;100.00;95680.56;5028579;28;20037;-72
2023/08/02 06:39:17;;;;;;;12.38;7.57;;;;;;;14.32;100.00;95676.00;5018805;28;20053;-70
2023/08/02 06:41:43;;;;;;;13.90;7.18;;;;;;;14.38;100.00;95678.28;5023397;28;20045;-71
2023/08/02 06:44:08;;;;;;;13.80;7.35;;;;;;;14.39;100.00;95679.84;5018287;28;20160;-71
2023/08/02 06:46:34;;;;;;;9.95;7.30;;;;;;;14.31;100.00;95677.19;5022968;28;20037;-73
2023/08/02 06:49:00;;;;;;;15.20;8.32;;;;;;;14.43;100.00;95672.31;5022165;28;20406;-71
2023/08/02 06:51:26;;;;;;;10.85;6.88;;;;;;;14.68;100.00;95674.69;5017910;28;20048;-72
2023/08/02 06:53:52;;;;;;;11.85;7.60;;;;;;;14.62;100.00;95673.59;5022036;28;20045;-72
2023/08/02 06:56:17;;;;;;;12.68;7.38;;;;;;;14.69;100.00;95679.78;5019366;28;20184;-71
2023/08/02 06:58:44;;;;;;;14.65;7.90;;;;;;;14.69;100.00;95681.75;5021714;28;20073;-73
2023/08/02 07:01:20;;;;;;;11.63;7.60;;;;;;;14.78;100.00;95678.47;5008899;28;20052;-72
2023/08/02 07:03:46;;;;;;;12.50;7.47;;;;;;;14.93;100.00;95681.75;5000308;28;20411;-72
2023/08/02 07:06:14;;;;;;;13.85;7.40;;;;;;;15.06;100.00;95675.22;4997672;28;20048;-72
2023/08/02 07:08:40;;;;;;;10.75;5.60;;;;;;;15.23;100.00;95680.84;5000838;28;20066;-72
2023/08/02 07:11:09;;;;;;;10.18;5.78;;;;;;;15.34;100.00;95677.88;4998006;28;20065;-73
2023/08/02 07:13:36;;;;;;;9.93;6.20;;;;;;;15.26;100.00;95672.50;5004344;28;20121;-73
2023/08/02 07:16:02;;;;;;;10.00;5.45;;;;;;;15.38;100.00;95670.34;5002732;28;20037;-73
2023/08/02 07:18:28;;;;;;;8.40;5.55;;;;;;;15.50;100.00;95669.69;5000181;28;20179;-72
2023/08/02 07:20:53;;;;;;;10.43;5.25;;;;;;;15.56;100.00;95670.75;5003523;28;20368;-70
2023/08/02 07:23:19;;;;;;;8.00;5.20;;;;;;;15.48;100.00;95664.63;4997994;28;20410;-70
2023/08/02 07:25:45;;;;;;;9.43;4.72;;;;;;;15.61;100.00;95655.66;5001705;28;20519;-72
2023/08/02 07:28:10;;;;;;;10.88;4.93;;;;;;;15.61;100.00;95661.19;4996053;28;20053;-72
2023/08/02 07:30:35;;;;;;;12.10;5.35;;;;;;;15.51;100.00;95654.69;5004621;28;20502;-72
2023/08/02 07:33:01;;;;;;;9.07;5.03;;;;;;;15.59;100.00;95644.28;5001027;28;20042;-72
2023/08/02 07:35:26;;;;;;;8.20;4.65;;;;;;;15.70;100.00;95633.03;4995973;28;20045;-72
2023/08/02 07:37:52;;;;;;;12.93;5.28;;;;;;;15.80;100.00;95630.06;5001585;28;20042;-70
2023/08/02 07:40:17;;;;;;;8.00;4.43;;;;;;;15.90;100.00;95633.03;4995502;28;20104;-71
2023/08/02 07:42:42;;;;;;;10.57;4.63;;;;;;;15.86;100.00;95631.13;5004673;28;20725;-71
2023/08/02 07:45:10;;;;;;;7.88;4.68;;;;;;;15.97;100.00;95627.34;5000854;28;20069;-71
2023/08/02 07:47:37;;;;;;;7.78;4.45;;;;;;;16.04;100.00;95619.69;5009136;28;20072;-73
2023/08/02 07:50:12;;;;;;;8.35;4.85;;;;;;;16.02;100.00;95611.03;5003853;28;20042;-71
2023/08/02 07:52:37;;;;;;;5.55;3.53;;;;;;;16.23;100.00;95611.78;5004544;28;20041;-70
2023/08/02 07:55:04;;;;;;;6.10;3.72;;;;;;;16.28;100.00;95602.19;5018337;28;20045;-71
2023/08/02 07:57:34;;;;;;;5.65;3.17;;;;;;;16.32;100.00;95605.66;5025400;28;20102;-72
2023/08/02 07:59:59;;;;;;;;;;;;;;;16.23;100.00;95600.72;5019432;28;20042;-72
2023/08/02 08:02:25;;;;;;;6.63;3.00;;;;;;;16.46;100.00;95588.75;4999730;28;19987;-70
2023/08/02 08:04:54;;;;;;;9.00;3.10;;;;;;;16.57;100.00;95596.75;5005019;28;20328;-71
2023/08/02 08:07:20;;;;;;;5.43;2.60;;;;;;;16.63;100.00;95603.31;4998005;28;20038;-71
2023/08/02 08:09:45;;;;;;;6.85;3.35;;;;;;;16.66;100.00;95585.88;5006242;28;20128;-71
2023/08/02 08:12:11;;;;;;;5.45;3.05;;;;;;;16.70;100.00;95577.47;5003861;28;20117;-71
2023/08/02 08:14:36;;;;;;;5.63;2.90;;;;;;;16.65;100.00;95575.25;5003779;28;20065;-71
2023/08/02 08:17:03;;;;;;;7.30;2.78;;;;;;;16.59;100.00;95586.06;4999473;28;20565;-71
2023/08/02 08:19:28;;;;;;;4.55;2.90;;;;;;;16.48;100.00;95566.97;5009780;28;20042;-72
2023/08/02 08:21:54;;;;;;;6.10;2.63;;;;;;;16.54;100.00;95576.28;5003328;28;20483;-72
2023/08/02 08:24:20;;;;;;;4.78;2.40;;;;;;;16.49;100.00;95570.50;4998791;28;20566;-71
2023/08/02 08:26:45;;;;;;;4.78;2.80;;;;;;;16.48;100.00;95546.84;5015094;28;20080;-71
2023/08/02 08:29:11;;;;;;;4.38;2.67;;;;;;;16.55;100.00;95555.72;5014416;28;20045;-71
2023/08/02 08:31:36;;;;;;;5.50;2.85;;;;;;;16.70;100.00;95549.84;5004487;28;20042;-70
2023/08/02 08:34:02;;;;;;;4.53;2.70;;;;;;;16.87;100.00;95548.63;5002131;28;20439;-69
2023/08/02 08:36:31;;;;;;;4.32;2.85;;;;;;;16.87;100.00;95550.59;5002381;28;20125;-70
2023/08/02 08:38:57;;;;;;;6.78;2.90;;;;;;;16.52;100.00;95539.25;5003647;28;20034;-71
2023/08/02 08:41:23;;;;;;;8.20;3.63;;;;;;;16.07;100.00;95540.72;4997852;28;20895;-71
2023/08/02 08:43:48;;;;;;;7.78;3.67;;;;;;;16.05;100.00;95541.16;5000739;28;20046;-70
2023/08/02 08:46:14;;;;;;;6.75;3.60;;;;;;;16.23;100.00;95537.97;4999567;28;20038;-72
2023/08/02 08:48:40;;;;;;;5.90;3.53;;;;;;;16.21;100.00;95531.31;5002742;28;20045;-70
2023/08/02 08:51:07;;;;;;;6.68;3.53;;;;;;;16.48;100.00;95531.03;4998297;28;20428;-69
2023/08/02 08:53:38;;;;;;;5.13;3.30;;;;;;;16.90;100.00;95525.59;5002850;28;20167;-72
2023/08/02 08:56:04;;;;;;;5.07;3.10;;;;;;;17.35;100.00;95507.38;4999228;28;20046;-71
2023/08/02 08:58:34;;;;;;;5.60;3.08;;;;;;;17.20;100.00;95507.78;5004224;28;20069;-72
2023/08/02 09:01:03;;;;;;;5.95;3.22;;;;;;;18.26;100.00;95495.09;5001073;28;20042;-71
2023/08/02 09:03:29;;;;;;;8.40;2.85;;;;;;;17.84;100.00;95503.53;4998182;28;20074;-71
2023/08/02 09:06:00;;;;;;;5.78;2.50;;;;;;;18.15;100.00;95501.75;4985629;28;20077;-71
2023/08/02 09:08:26;;;;;;;8.20;3.20;;;;;;;18.52;100.00;95488.25;4996935;28;20042;-71
2023/08/02 09:10:52;;;;;;;6.03;3.30;;;;;;;17.89;100.00;95486.38;5003548;28;20399;-70
2023/08/02 09:13:22;;;;;;;5.50;2.40;;;;;;;18.14;100.00;95491.13;4996659;28;20064;-69
2023/08/02 09:16:13;;;;;;;4.53;2.72;;;;;;;18.92;100.00;95478.56;5003083;28;20097;-69
2023/08/02 09:18:47;;;;;;;3.78;2.25;;;;;;;18.96;100.00;95476.47;5002868;28;20126;-70
2023/08/02 09:21:15;;;;;;;4.05;2.50;;;;;;;19.20;100.00;95492.66;4998355;28;20041;-71
2023/08/02 09:23:56;;;;;;;7.45;2.60;;;;;;;18.39;100.00;95481.22;5003000;28;20049;-71
2023/08/02 09:26:22;;;;;;;7.45;3.33;;;;;;;17.96;100.00;95483.38;4999137;28;20046;-70
2023/08/02 09:29:05;;;;;;;6.78;3.20;;;;;;;18.32;100.00;95479.44;5002432;28;20034;-71
2023/08/02 09:31:35;;;;;;;4.40;2.47;;;;;;;18.45;100.00;95473.84;5000977;28;20561;-71
2023/08/02 09:34:01;;;;;;;4.82;3.00;;;;;;;17.79;100.00;95460.56;5014636;28;20120;-71
2023/08/02 09:36:28;;;;;;;4.90;2.90;;;;;;;18.10;100.00;95466.31;5015711;28;20069;-70
2023/08/02 09:38:57;;;;;;;8.55;3.22;;;;;;;18.49;100.00;95455.09;5000489;28;20041;-71
2023/08/02 09:41:24;;;;;;;5.93;2.88;;;;;;;19.89;100.00;95451.97;5011555;28;20057;-71
2023/08/02 09:43:51;;;;;;;5.05;3.28;;;;;;;20.23;100.00;95450.94;5020874;28;20042;-71
2023/08/02 09:46:24;;;;;;;3.72;2.28;;;;;;;20.34;100.00;95448.50;4996230;28;20045;-70
2023/08/02 09:48:49;;;;;;;6.07;2.22;;;;;;;20.40;100.00;95441.09;5002676;28;20511;-71
2023/08/02 09:51:15;;;;;;;4.20;2.20;;;;;;;19.01;100.00;95431.47;4998263;28;20038;-72
2023/08/02 09:53:40;;;;;;;5.35;2.40;;;;;;;19.48;100.00;95421.38;5002165;28;20125;-71
2023/08/02 09:56:06;;;;;;;4.88;2.72;;;;;;;19.26;100.00;95422.19;4999404;28;20050;-70
2023/08/02 09:58:37;;;;;;;4.60;2.35;;;;;;;20.88;100.00;95420.41;5001223;28;20386;-69
2023/08/02 10:01:03;;;;;;;4.75;2.13;;;;;;;22.27;84.27;95418.66;4984335;28;20166;-71
2023/08/02 10:03:29;;;;;;;3.58;2.00;;;;;;;22.99;82.20;95412.13;4998490;28;20124;-72
2023/08/02 10:05:58;;;;;;;3.45;2.00;;;;;;;23.79;74.50;95408.66;5000900;28;20129;-71
2023/08/02 10:08:27;;;;;;;3.40;1.88;;;;;;;22.41;84.58;95413.59;4997056;28;20392;-71
2023/08/02 10:10:53;;;;;;;5.90;2.55;;;;;;;23.61;75.78;95409.66;5000101;28;20045;-71
2023/08/02 10:13:25;;;;;;;3.97;1.95;;;;;;;23.68;71.21;95409.25;4997428;28;20072;-71
2023/08/02 10:15:51;;;;;;;4.47;2.33;;;;;;;24.75;66.56;95407.13;5002279;28;20037;-72
2023/08/02 10:18:17;;;;;;;3.38;2.05;;;;;;;25.54;57.69;95405.84;5002609;28;20052;-71
2023/08/02 10:20:44;;;;;;;5.85;2.60;;;;;;;25.48;59.43;95407.84;5017101;28;20076;-71
2023/08/02 10:23:10;;;;;;;4.75;2.50;;;;;;;24.95;60.91;95397.91;5014096;28;20053;-70
2023/08/02 10:25:36;;;;;;;6.55;2.55;;;;;;;25.76;57.12;95413.63;5004250;28;20041;-70
2023/08/02 10:28:02;;;;;;;2.63;1.55;;;;;;;25.51;56.70;95403.25;5001428;28;20056;-70
2023/08/02 10:30:29;;;;;;;5.18;1.88;;;;;;;25.10;59.39;95392.16;4996680;28;20046;-70
2023/08/02 10:33:17;;;;;;;5.00;2.30;;;;;;;25.71;57.20;95391.16;5001991;28;20132;-70
2023/08/02 10:36:03;;;;;;;2.80;1.75;;;;;;;24.46;59.18;95378.00;5001723;28;20395;-70
2023/08/02 10:38:38;;;;;;;3.75;2.20;;;;;;;24.38;61.35;95374.09;4999931;28;20100;-70
2023/08/02 10:41:16;;;;;;;4.32;2.33;;;;;;;24.45;61.80;95367.31;4996251;28;20054;-68
2023/08/02 10:43:53;;;;;;;5.95;2.13;;;;;;;24.60;62.14;95365.22;5001669;28;20136;-70
2023/08/02 10:46:27;;;;;;;7.13;1.92;;;;;;;24.55;61.04;95365.94;4977920;28;20035;-69
2023/08/02 10:49:16;;;;;;;5.75;2.33;;;;;;;24.30;64.19;95356.19;4996574;28;20053;-70
2023/08/02 10:51:42;;;;;;;3.50;1.90;;;;;;;24.91;63.69;95356.09;4982159;28;20093;-70
2023/08/02 10:54:22;;;;;;;5.70;2.17;;;;;;;25.06;61.63;95352.41;4977646;28;20042;-71
2023/08/02 10:56:53;;;;;;;3.25;2.00;;;;;;;25.67;59.16;95345.78;4980952;28;20038;-70
2023/08/02 10:59:25;;;;;;;5.70;2.42;;;;;;;25.68;60.06;95334.06;4976765;28;20441;-70
2023/08/02 11:02:01;;;;;;;4.55;2.35;;;;;;;25.73;60.27;95333.34;4981137;28;20132;-69
2023/08/02 11:04:28;;;;;;;3.47;2.05;;;;;;;25.75;62.00;95325.19;4993251;28;20073;-69
2023/08/02 11:06:53;;;;;;;5.50;2.00;;;;;;;26.07;62.65;95321.53;5001434;28;20046;-69
2023/08/02 11:09:32;;;;;;;4.60;2.05;;;;;;;26.17;59.81;95327.72;4995195;28;20046;-69
2023/08/02 11:12:14;;;;;;;7.35;2.35;;;;;;;26.09;61.04;95316.19;5001165;28;20046;-71
2023/08/02 11:14:43;;;;;;;4.00;2.40;;;;;;;25.63;63.23;95320.00;5000892;28;20442;-71
2023/08/02 11:17:10;;;;;;;8.00;2.13;;;;;;;25.53;65.03;95316.63;4996822;28;20042;-70